sensor_id;sensor_type;location;lat;lon;timestamp;P1;durP1;ratioP1;P2;durP2;ratioP2
72584;SDS011;60618;40.084;32.908;2023-02-23T00:00:23;32.15;;;13.27;;
72584;SDS011;60618;40.084;32.908;2023-02-23T00:02:54;30.03;;;13.37;;
72584;SDS011;60618;40.084;32.908;2023-02-23T00:05:22;26.77;;;12.50;;
72584;SDS011;60618;40.084;32.908;2023-02-23T00:07:51;23.58;;;10.10;;
72584;SDS011;60618;40.084;32.908;2023-02-23T00:10:18;18.75;;;8.48;;
72584;SDS011;60618;40.084;32.908;2023-02-23T00:12:46;18.13;;;8.35;;
72584;SDS011;60618;40.084;32.908;2023-02-23T00:15:13;20.87;;;9.57;;
72584;SDS011;60618;40.084;32.908;2023-02-23T00:17:40;16.40;;;7.57;;
72584;SDS011;60618;40.084;32.908;2023-02-23T00:20:09;18.38;;;8.48;;
72584;SDS011;60618;40.084;32.908;2023-02-23T00:22:37;17.55;;;8.25;;
72584;SDS011;60618;40.084;32.908;2023-02-23T00:25:06;22.05;;;10.23;;
72584;SDS011;60618;40.084;32.908;2023-02-23T00:27:38;26.20;;;12.03;;
72584;SDS011;60618;40.084;32.908;2023-02-23T00:30:07;28.85;;;13.18;;
72584;SDS011;60618;40.084;32.908;2023-02-23T00:32:37;25.90;;;11.90;;
72584;SDS011;60618;40.084;32.908;2023-02-23T00:35:05;28.13;;;13.38;;
72584;SDS011;60618;40.084;32.908;2023-02-23T00:37:37;22.02;;;9.85;;
72584;SDS011;60618;40.084;32.908;2023-02-23T00:40:04;25.57;;;12.20;;
72584;SDS011;60618;40.084;32.908;2023-02-23T00:42:36;27.58;;;13.20;;
72584;SDS011;60618;40.084;32.908;2023-02-23T00:45:03;24.75;;;11.45;;
72584;SDS011;60618;40.084;32.908;2023-02-23T00:47:30;27.67;;;12.65;;
72584;SDS011;60618;40.084;32.908;2023-02-23T00:50:00;24.00;;;11.00;;
72584;SDS011;60618;40.084;32.908;2023-02-23T00:52:28;22.00;;;9.93;;
72584;SDS011;60618;40.084;32.908;2023-02-23T00:54:55;20.92;;;9.30;;
72584;SDS011;60618;40.084;32.908;2023-02-23T00:57:22;24.30;;;11.30;;
72584;SDS011;60618;40.084;32.908;2023-02-23T00:59:49;24.63;;;10.73;;
72584;SDS011;60618;40.084;32.908;2023-02-23T01:02:15;22.35;;;10.85;;
72584;SDS011;60618;40.084;32.908;2023-02-23T01:04:42;24.10;;;12.10;;
72584;SDS011;60618;40.084;32.908;2023-02-23T01:07:09;21.58;;;10.65;;
72584;SDS011;60618;40.084;32.908;2023-02-23T01:09:37;28.10;;;12.95;;
72584;SDS011;60618;40.084;32.908;2023-02-23T01:12:04;27.15;;;13.27;;
72584;SDS011;60618;40.084;32.908;2023-02-23T01:14:31;22.88;;;10.18;;
72584;SDS011;60618;40.084;32.908;2023-02-23T01:16:58;21.03;;;10.27;;
72584;SDS011;60618;40.084;32.908;2023-02-23T01:19:25;20.45;;;9.73;;
72584;SDS011;60618;40.084;32.908;2023-02-23T01:21:52;19.58;;;8.18;;
72584;SDS011;60618;40.084;32.908;2023-02-23T01:24:19;18.80;;;8.38;;
72584;SDS011;60618;40.084;32.908;2023-02-23T01:26:45;20.20;;;9.18;;
72584;SDS011;60618;40.084;32.908;2023-02-23T01:29:14;21.00;;;9.30;;
72584;SDS011;60618;40.084;32.908;2023-02-23T01:31:44;19.13;;;9.30;;
72584;SDS011;60618;40.084;32.908;2023-02-23T01:34:13;18.48;;;9.32;;
72584;SDS011;60618;40.084;32.908;2023-02-23T01:36:41;27.27;;;11.25;;
72584;SDS011;60618;40.084;32.908;2023-02-23T01:39:10;24.45;;;11.93;;
72584;SDS011;60618;40.084;32.908;2023-02-23T01:41:39;21.03;;;10.73;;
72584;SDS011;60618;40.084;32.908;2023-02-23T01:46:40;21.55;;;9.90;;
72584;SDS011;60618;40.084;32.908;2023-02-23T01:49:15;19.77;;;10.23;;
72584;SDS011;60618;40.084;32.908;2023-02-23T01:51:47;23.50;;;11.75;;
72584;SDS011;60618;40.084;32.908;2023-02-23T01:54:18;25.20;;;11.53;;
72584;SDS011;60618;40.084;32.908;2023-02-23T01:56:49;19.02;;;9.27;;
72584;SDS011;60618;40.084;32.908;2023-02-23T01:59:19;18.33;;;7.90;;
72584;SDS011;60618;40.084;32.908;2023-02-23T02:01:46;21.17;;;10.13;;
72584;SDS011;60618;40.084;32.908;2023-02-23T02:04:13;22.00;;;10.88;;
72584;SDS011;60618;40.084;32.908;2023-02-23T02:06:40;20.20;;;9.93;;
72584;SDS011;60618;40.084;32.908;2023-02-23T02:09:10;17.75;;;8.95;;
72584;SDS011;60618;40.084;32.908;2023-02-23T02:11:41;20.75;;;10.00;;
72584;SDS011;60618;40.084;32.908;2023-02-23T02:17:21;19.23;;;8.93;;
72584;SDS011;60618;40.084;32.908;2023-02-23T02:29:27;17.27;;;8.73;;
72584;SDS011;60618;40.084;32.908;2023-02-23T02:43:10;19.15;;;8.55;;
72584;SDS011;60618;40.084;32.908;2023-02-23T02:45:54;16.35;;;7.97;;
72584;SDS011;60618;40.084;32.908;2023-02-23T02:54:04;19.92;;;8.80;;
72584;SDS011;60618;40.084;32.908;2023-02-23T02:56:49;18.90;;;8.30;;
72584;SDS011;60618;40.084;32.908;2023-02-23T02:59:18;21.70;;;9.80;;
72584;SDS011;60618;40.084;32.908;2023-02-23T03:01:45;19.30;;;9.77;;
72584;SDS011;60618;40.084;32.908;2023-02-23T03:04:20;15.30;;;7.97;;
72584;SDS011;60618;40.084;32.908;2023-02-23T03:06:58;16.75;;;7.32;;
72584;SDS011;60618;40.084;32.908;2023-02-23T03:12:20;21.23;;;9.40;;
72584;SDS011;60618;40.084;32.908;2023-02-23T03:15:33;19.60;;;9.80;;
72584;SDS011;60618;40.084;32.908;2023-02-23T03:18:44;17.83;;;8.43;;
72584;SDS011;60618;40.084;32.908;2023-02-23T03:20:53;20.10;;;8.40;;
72584;SDS011;60618;40.084;32.908;2023-02-23T03:26:12;20.85;;;10.52;;
72584;SDS011;60618;40.084;32.908;2023-02-23T03:29:07;18.20;;;8.67;;
72584;SDS011;60618;40.084;32.908;2023-02-23T03:32:03;23.17;;;10.55;;
72584;SDS011;60618;40.084;32.908;2023-02-23T03:34:51;21.27;;;10.02;;
72584;SDS011;60618;40.084;32.908;2023-02-23T03:37:31;21.65;;;10.18;;
72584;SDS011;60618;40.084;32.908;2023-02-23T03:40:05;23.33;;;9.43;;
72584;SDS011;60618;40.084;32.908;2023-02-23T03:42:50;26.63;;;12.50;;
72584;SDS011;60618;40.084;32.908;2023-02-23T03:45:23;26.83;;;13.68;;
72584;SDS011;60618;40.084;32.908;2023-02-23T03:47:54;29.52;;;13.10;;
72584;SDS011;60618;40.084;32.908;2023-02-23T03:50:26;22.58;;;10.38;;
72584;SDS011;60618;40.084;32.908;2023-02-23T03:52:56;21.33;;;10.50;;
72584;SDS011;60618;40.084;32.908;2023-02-23T03:55:31;27.03;;;14.00;;
72584;SDS011;60618;40.084;32.908;2023-02-23T03:58:04;22.67;;;11.23;;
72584;SDS011;60618;40.084;32.908;2023-02-23T04:00:36;21.33;;;9.35;;
72584;SDS011;60618;40.084;32.908;2023-02-23T04:03:08;14.93;;;7.28;;
72584;SDS011;60618;40.084;32.908;2023-02-23T04:05:40;15.38;;;7.28;;
72584;SDS011;60618;40.084;32.908;2023-02-23T04:08:11;17.97;;;8.00;;
72584;SDS011;60618;40.084;32.908;2023-02-23T04:10:53;18.73;;;8.65;;
72584;SDS011;60618;40.084;32.908;2023-02-23T04:13:29;24.35;;;12.60;;
72584;SDS011;60618;40.084;32.908;2023-02-23T04:16:02;27.25;;;12.38;;
72584;SDS011;60618;40.084;32.908;2023-02-23T04:18:33;23.83;;;10.52;;
72584;SDS011;60618;40.084;32.908;2023-02-23T04:21:02;18.13;;;8.80;;
72584;SDS011;60618;40.084;32.908;2023-02-23T04:23:30;25.15;;;11.07;;
72584;SDS011;60618;40.084;32.908;2023-02-23T04:25:58;20.70;;;9.68;;
72584;SDS011;60618;40.084;32.908;2023-02-23T04:28:29;18.10;;;8.70;;
72584;SDS011;60618;40.084;32.908;2023-02-23T04:30:58;23.55;;;11.35;;
72584;SDS011;60618;40.084;32.908;2023-02-23T04:33:25;20.33;;;8.97;;
72584;SDS011;60618;40.084;32.908;2023-02-23T04:35:59;28.48;;;13.13;;
72584;SDS011;60618;40.084;32.908;2023-02-23T04:38:26;27.60;;;13.32;;
72584;SDS011;60618;40.084;32.908;2023-02-23T04:40:57;23.73;;;11.23;;
72584;SDS011;60618;40.084;32.908;2023-02-23T04:43:27;24.00;;;11.38;;
72584;SDS011;60618;40.084;32.908;2023-02-23T04:45:54;29.30;;;12.67;;
72584;SDS011;60618;40.084;32.908;2023-02-23T04:48:21;25.63;;;12.25;;
72584;SDS011;60618;40.084;32.908;2023-02-23T04:50:50;23.58;;;12.07;;
72584;SDS011;60618;40.084;32.908;2023-02-23T04:53:18;26.85;;;12.30;;
72584;SDS011;60618;40.084;32.908;2023-02-23T04:55:44;27.52;;;13.00;;
72584;SDS011;60618;40.084;32.908;2023-02-23T04:58:12;28.53;;;13.73;;
72584;SDS011;60618;40.084;32.908;2023-02-23T05:00:39;36.13;;;15.35;;
72584;SDS011;60618;40.084;32.908;2023-02-23T05:03:06;31.23;;;14.68;;
72584;SDS011;60618;40.084;32.908;2023-02-23T05:05:34;39.55;;;17.75;;
72584;SDS011;60618;40.084;32.908;2023-02-23T05:08:00;40.25;;;18.42;;
72584;SDS011;60618;40.084;32.908;2023-02-23T05:10:27;39.87;;;17.43;;
72584;SDS011;60618;40.084;32.908;2023-02-23T05:12:54;42.22;;;17.85;;
72584;SDS011;60618;40.084;32.908;2023-02-23T05:15:21;38.15;;;17.42;;
72584;SDS011;60618;40.084;32.908;2023-02-23T05:17:48;35.88;;;17.60;;
72584;SDS011;60618;40.084;32.908;2023-02-23T05:20:15;36.60;;;16.90;;
72584;SDS011;60618;40.084;32.908;2023-02-23T05:22:42;31.33;;;16.83;;
72584;SDS011;60618;40.084;32.908;2023-02-23T05:25:09;32.90;;;16.52;;
72584;SDS011;60618;40.084;32.908;2023-02-23T05:27:36;37.90;;;17.05;;
72584;SDS011;60618;40.084;32.908;2023-02-23T05:30:04;31.95;;;15.25;;
72584;SDS011;60618;40.084;32.908;2023-02-23T05:32:32;34.95;;;16.88;;
72584;SDS011;60618;40.084;32.908;2023-02-23T05:35:00;32.90;;;15.80;;
72584;SDS011;60618;40.084;32.908;2023-02-23T05:37:27;33.72;;;17.33;;
72584;SDS011;60618;40.084;32.908;2023-02-23T05:39:54;35.90;;;17.17;;
72584;SDS011;60618;40.084;32.908;2023-02-23T05:42:21;35.75;;;17.40;;
72584;SDS011;60618;40.084;32.908;2023-02-23T05:44:48;38.97;;;18.80;;
72584;SDS011;60618;40.084;32.908;2023-02-23T05:47:14;43.37;;;20.50;;
72584;SDS011;60618;40.084;32.908;2023-02-23T05:49:41;45.72;;;20.75;;
72584;SDS011;60618;40.084;32.908;2023-02-23T05:52:08;41.30;;;19.58;;
72584;SDS011;60618;40.084;32.908;2023-02-23T05:54:35;37.92;;;19.58;;
72584;SDS011;60618;40.084;32.908;2023-02-23T05:57:02;39.60;;;19.17;;
72584;SDS011;60618;40.084;32.908;2023-02-23T05:59:29;37.53;;;18.23;;
72584;SDS011;60618;40.084;32.908;2023-02-23T06:01:55;37.10;;;18.80;;
72584;SDS011;60618;40.084;32.908;2023-02-23T06:04:22;36.22;;;17.70;;
72584;SDS011;60618;40.084;32.908;2023-02-23T06:06:49;42.00;;;19.67;;
72584;SDS011;60618;40.084;32.908;2023-02-23T06:09:16;43.65;;;20.67;;
72584;SDS011;60618;40.084;32.908;2023-02-23T06:11:43;38.23;;;18.90;;
72584;SDS011;60618;40.084;32.908;2023-02-23T06:14:10;40.25;;;19.02;;
72584;SDS011;60618;40.084;32.908;2023-02-23T06:16:37;40.67;;;19.92;;
72584;SDS011;60618;40.084;32.908;2023-02-23T06:19:04;39.08;;;19.98;;
72584;SDS011;60618;40.084;32.908;2023-02-23T06:21:31;40.47;;;20.15;;
72584;SDS011;60618;40.084;32.908;2023-02-23T06:23:58;36.57;;;18.60;;
72584;SDS011;60618;40.084;32.908;2023-02-23T06:26:25;38.85;;;18.75;;
72584;SDS011;60618;40.084;32.908;2023-02-23T06:28:52;37.17;;;17.65;;
72584;SDS011;60618;40.084;32.908;2023-02-23T06:31:19;39.00;;;19.15;;
72584;SDS011;60618;40.084;32.908;2023-02-23T06:33:47;37.95;;;19.52;;
72584;SDS011;60618;40.084;32.908;2023-02-23T06:36:14;41.47;;;19.80;;
72584;SDS011;60618;40.084;32.908;2023-02-23T06:38:41;41.35;;;19.13;;
72584;SDS011;60618;40.084;32.908;2023-02-23T06:41:08;40.45;;;19.42;;
72584;SDS011;60618;40.084;32.908;2023-02-23T06:43:35;36.05;;;19.63;;
72584;SDS011;60618;40.084;32.908;2023-02-23T06:46:02;46.85;;;22.33;;
72584;SDS011;60618;40.084;32.908;2023-02-23T06:48:29;42.10;;;20.67;;
72584;SDS011;60618;40.084;32.908;2023-02-23T06:50:57;42.53;;;22.38;;
72584;SDS011;60618;40.084;32.908;2023-02-23T06:53:25;40.08;;;22.08;;
72584;SDS011;60618;40.084;32.908;2023-02-23T06:55:52;45.25;;;23.05;;
72584;SDS011;60618;40.084;32.908;2023-02-23T06:58:19;44.25;;;23.13;;
72584;SDS011;60618;40.084;32.908;2023-02-23T07:00:46;50.37;;;24.37;;
72584;SDS011;60618;40.084;32.908;2023-02-23T07:03:13;44.70;;;22.08;;
72584;SDS011;60618;40.084;32.908;2023-02-23T07:05:40;49.72;;;23.02;;
72584;SDS011;60618;40.084;32.908;2023-02-23T07:08:06;45.53;;;22.88;;
72584;SDS011;60618;40.084;32.908;2023-02-23T07:10:33;44.50;;;22.95;;
72584;SDS011;60618;40.084;32.908;2023-02-23T07:13:00;44.10;;;22.43;;
72584;SDS011;60618;40.084;32.908;2023-02-23T07:15:27;48.45;;;22.60;;
72584;SDS011;60618;40.084;32.908;2023-02-23T07:17:54;43.45;;;23.13;;
72584;SDS011;60618;40.084;32.908;2023-02-23T07:20:21;45.38;;;22.58;;
72584;SDS011;60618;40.084;32.908;2023-02-23T07:22:48;38.78;;;19.98;;
72584;SDS011;60618;40.084;32.908;2023-02-23T07:25:15;43.63;;;21.57;;
72584;SDS011;60618;40.084;32.908;2023-02-23T07:27:42;37.35;;;21.30;;
72584;SDS011;60618;40.084;32.908;2023-02-23T07:30:09;41.20;;;20.63;;
72584;SDS011;60618;40.084;32.908;2023-02-23T07:32:37;37.72;;;19.90;;
72584;SDS011;60618;40.084;32.908;2023-02-23T07:35:04;37.80;;;19.38;;
72584;SDS011;60618;40.084;32.908;2023-02-23T07:37:31;36.67;;;18.30;;
72584;SDS011;60618;40.084;32.908;2023-02-23T07:39:58;34.35;;;17.90;;
72584;SDS011;60618;40.084;32.908;2023-02-23T07:42:26;31.27;;;16.00;;
72584;SDS011;60618;40.084;32.908;2023-02-23T07:44:53;35.50;;;16.98;;
72584;SDS011;60618;40.084;32.908;2023-02-23T07:47:20;29.38;;;15.60;;
72584;SDS011;60618;40.084;32.908;2023-02-23T07:49:47;30.27;;;14.77;;
72584;SDS011;60618;40.084;32.908;2023-02-23T07:52:16;28.10;;;14.65;;
72584;SDS011;60618;40.084;32.908;2023-02-23T07:54:43;23.73;;;13.18;;
72584;SDS011;60618;40.084;32.908;2023-02-23T07:57:11;22.75;;;12.05;;
72584;SDS011;60618;40.084;32.908;2023-02-23T07:59:38;19.27;;;9.57;;
72584;SDS011;60618;40.084;32.908;2023-02-23T08:02:05;24.47;;;12.60;;
72584;SDS011;60618;40.084;32.908;2023-02-23T08:04:32;22.92;;;11.18;;
72584;SDS011;60618;40.084;32.908;2023-02-23T08:06:59;16.10;;;8.25;;
72584;SDS011;60618;40.084;32.908;2023-02-23T08:09:26;15.77;;;7.97;;
72584;SDS011;60618;40.084;32.908;2023-02-23T08:11:53;17.20;;;9.13;;
72584;SDS011;60618;40.084;32.908;2023-02-23T08:14:20;16.80;;;9.83;;
72584;SDS011;60618;40.084;32.908;2023-02-23T08:16:47;15.30;;;8.90;;
72584;SDS011;60618;40.084;32.908;2023-02-23T08:19:16;20.58;;;10.25;;
72584;SDS011;60618;40.084;32.908;2023-02-23T08:21:44;17.42;;;8.93;;
72584;SDS011;60618;40.084;32.908;2023-02-23T08:24:10;13.77;;;7.38;;
72584;SDS011;60618;40.084;32.908;2023-02-23T08:26:37;9.67;;;4.50;;
72584;SDS011;60618;40.084;32.908;2023-02-23T08:29:04;6.47;;;3.00;;
72584;SDS011;60618;40.084;32.908;2023-02-23T08:31:31;6.15;;;2.60;;
72584;SDS011;60618;40.084;32.908;2023-02-23T08:33:59;5.38;;;2.80;;
72584;SDS011;60618;40.084;32.908;2023-02-23T08:36:26;4.80;;;2.63;;
72584;SDS011;60618;40.084;32.908;2023-02-23T08:38:54;5.30;;;2.63;;
72584;SDS011;60618;40.084;32.908;2023-02-23T08:41:21;5.07;;;2.50;;
72584;SDS011;60618;40.084;32.908;2023-02-23T08:43:48;5.03;;;2.50;;
72584;SDS011;60618;40.084;32.908;2023-02-23T08:46:15;4.50;;;2.20;;
72584;SDS011;60618;40.084;32.908;2023-02-23T08:48:42;4.85;;;2.33;;
72584;SDS011;60618;40.084;32.908;2023-02-23T08:51:09;5.73;;;2.70;;
72584;SDS011;60618;40.084;32.908;2023-02-23T08:53:36;4.95;;;2.38;;
72584;SDS011;60618;40.084;32.908;2023-02-23T08:56:04;6.20;;;2.28;;
72584;SDS011;60618;40.084;32.908;2023-02-23T08:58:33;5.35;;;2.60;;
72584;SDS011;60618;40.084;32.908;2023-02-23T09:01:01;5.05;;;2.70;;
72584;SDS011;60618;40.084;32.908;2023-02-23T09:03:29;5.40;;;2.30;;
72584;SDS011;60618;40.084;32.908;2023-02-23T09:06:04;4.95;;;2.30;;
72584;SDS011;60618;40.084;32.908;2023-02-23T09:08:33;4.97;;;2.60;;
72584;SDS011;60618;40.084;32.908;2023-02-23T09:11:00;5.07;;;2.63;;
72584;SDS011;60618;40.084;32.908;2023-02-23T09:13:27;5.50;;;2.30;;
72584;SDS011;60618;40.084;32.908;2023-02-23T09:15:54;4.70;;;2.43;;
72584;SDS011;60618;40.084;32.908;2023-02-23T09:18:21;5.15;;;2.40;;
72584;SDS011;60618;40.084;32.908;2023-02-23T09:20:47;4.25;;;2.22;;
72584;SDS011;60618;40.084;32.908;2023-02-23T09:23:15;4.90;;;2.40;;
72584;SDS011;60618;40.084;32.908;2023-02-23T09:25:42;8.02;;;3.20;;
72584;SDS011;60618;40.084;32.908;2023-02-23T09:28:10;9.33;;;5.03;;
72584;SDS011;60618;40.084;32.908;2023-02-23T09:30:39;7.55;;;4.47;;
72584;SDS011;60618;40.084;32.908;2023-02-23T09:33:07;8.02;;;4.30;;
72584;SDS011;60618;40.084;32.908;2023-02-23T09:35:34;6.47;;;3.40;;
72584;SDS011;60618;40.084;32.908;2023-02-23T09:38:02;6.35;;;3.30;;
72584;SDS011;60618;40.084;32.908;2023-02-23T09:40:44;4.60;;;2.10;;
72584;SDS011;60618;40.084;32.908;2023-02-23T09:49:01;7.07;;;3.80;;
72584;SDS011;60618;40.084;32.908;2023-02-23T09:51:30;7.50;;;3.85;;
72584;SDS011;60618;40.084;32.908;2023-02-23T09:54:04;8.03;;;3.63;;
72584;SDS011;60618;40.084;32.908;2023-02-23T09:56:34;7.30;;;4.07;;
72584;SDS011;60618;40.084;32.908;2023-02-23T09:59:04;7.65;;;3.92;;
72584;SDS011;60618;40.084;32.908;2023-02-23T10:04:19;7.05;;;4.05;;
72584;SDS011;60618;40.084;32.908;2023-02-23T10:07:15;7.63;;;3.50;;
72584;SDS011;60618;40.084;32.908;2023-02-23T10:12:32;7.00;;;3.60;;
72584;SDS011;60618;40.084;32.908;2023-02-23T10:17:35;9.75;;;4.18;;
72584;SDS011;60618;40.084;32.908;2023-02-23T10:23:35;7.30;;;4.03;;
72584;SDS011;60618;40.084;32.908;2023-02-23T10:26:10;7.88;;;4.03;;
72584;SDS011;60618;40.084;32.908;2023-02-23T10:28:48;7.57;;;3.95;;
72584;SDS011;60618;40.084;32.908;2023-02-23T10:34:15;11.30;;;4.03;;
72584;SDS011;60618;40.084;32.908;2023-02-23T10:36:45;6.68;;;3.70;;
72584;SDS011;60618;40.084;32.908;2023-02-23T10:39:18;6.72;;;3.85;;
72584;SDS011;60618;40.084;32.908;2023-02-23T10:41:45;8.95;;;4.07;;
72584;SDS011;60618;40.084;32.908;2023-02-23T10:44:18;7.20;;;4.13;;
72584;SDS011;60618;40.084;32.908;2023-02-23T10:46:53;6.80;;;3.77;;
72584;SDS011;60618;40.084;32.908;2023-02-23T10:49:31;7.88;;;4.10;;
72584;SDS011;60618;40.084;32.908;2023-02-23T10:52:09;9.95;;;4.38;;
72584;SDS011;60618;40.084;32.908;2023-02-23T10:54:47;7.80;;;3.92;;
72584;SDS011;60618;40.084;32.908;2023-02-23T10:57:23;7.75;;;4.45;;
72584;SDS011;60618;40.084;32.908;2023-02-23T11:02:54;8.15;;;4.05;;
72584;SDS011;60618;40.084;32.908;2023-02-23T11:05:43;8.10;;;4.03;;
72584;SDS011;60618;40.084;32.908;2023-02-23T11:13:44;8.07;;;3.90;;
72584;SDS011;60618;40.084;32.908;2023-02-23T11:16:19;7.60;;;4.18;;
72584;SDS011;60618;40.084;32.908;2023-02-23T11:18:54;7.28;;;4.03;;
72584;SDS011;60618;40.084;32.908;2023-02-23T11:21:23;6.95;;;3.90;;
72584;SDS011;60618;40.084;32.908;2023-02-23T11:23:53;8.70;;;4.20;;
72584;SDS011;60618;40.084;32.908;2023-02-23T11:26:36;7.73;;;4.20;;
72584;SDS011;60618;40.084;32.908;2023-02-23T11:31:55;6.90;;;3.47;;
72584;SDS011;60618;40.084;32.908;2023-02-23T11:34:28;7.10;;;3.83;;
72584;SDS011;60618;40.084;32.908;2023-02-23T11:37:00;11.50;;;3.83;;
72584;SDS011;60618;40.084;32.908;2023-02-23T11:39:32;7.70;;;3.60;;
72584;SDS011;60618;40.084;32.908;2023-02-23T11:42:19;7.45;;;3.35;;
72584;SDS011;60618;40.084;32.908;2023-02-23T11:44:51;6.28;;;3.38;;
72584;SDS011;60618;40.084;32.908;2023-02-23T11:47:27;6.05;;;3.10;;
72584;SDS011;60618;40.084;32.908;2023-02-23T11:49:55;7.00;;;3.30;;
72584;SDS011;60618;40.084;32.908;2023-02-23T11:52:22;6.87;;;3.33;;
72584;SDS011;60618;40.084;32.908;2023-02-23T11:54:57;8.02;;;3.10;;
72584;SDS011;60618;40.084;32.908;2023-02-23T11:57:31;7.20;;;3.53;;
72584;SDS011;60618;40.084;32.908;2023-02-23T12:00:03;6.78;;;3.00;;
72584;SDS011;60618;40.084;32.908;2023-02-23T12:02:43;6.45;;;3.38;;
72584;SDS011;60618;40.084;32.908;2023-02-23T12:05:24;6.77;;;3.27;;
72584;SDS011;60618;40.084;32.908;2023-02-23T12:10:42;6.28;;;3.30;;
72584;SDS011;60618;40.084;32.908;2023-02-23T12:19:05;7.20;;;3.60;;
72584;SDS011;60618;40.084;32.908;2023-02-23T12:21:55;5.10;;;2.80;;
72584;SDS011;60618;40.084;32.908;2023-02-23T12:27:25;7.50;;;3.28;;
72584;SDS011;60618;40.084;32.908;2023-02-23T12:35:28;7.00;;;3.30;;
72584;SDS011;60618;40.084;32.908;2023-02-23T12:38:03;8.45;;;3.20;;
72584;SDS011;60618;40.084;32.908;2023-02-23T12:40:33;6.82;;;3.38;;
72584;SDS011;60618;40.084;32.908;2023-02-23T12:43:18;8.23;;;3.17;;
72584;SDS011;60618;40.084;32.908;2023-02-23T12:51:21;6.20;;;3.40;;
72584;SDS011;60618;40.084;32.908;2023-02-23T12:53:55;6.82;;;2.97;;
72584;SDS011;60618;40.084;32.908;2023-02-23T13:02:29;10.38;;;4.00;;
72584;SDS011;60618;40.084;32.908;2023-02-23T13:04:57;6.75;;;3.60;;
72584;SDS011;60618;40.084;32.908;2023-02-23T13:07:37;10.60;;;6.82;;
72584;SDS011;60618;40.084;32.908;2023-02-23T13:15:18;9.90;;;5.90;;
72584;SDS011;60618;40.084;32.908;2023-02-23T13:27:09;8.97;;;2.87;;
72584;SDS011;60618;40.084;32.908;2023-02-23T13:29:45;11.85;;;5.20;;
72584;SDS011;60618;40.084;32.908;2023-02-23T13:32:16;12.07;;;5.20;;
72584;SDS011;60618;40.084;32.908;2023-02-23T13:34:56;7.45;;;3.60;;
72584;SDS011;60618;40.084;32.908;2023-02-23T13:37:29;7.78;;;3.35;;
72584;SDS011;60618;40.084;32.908;2023-02-23T13:42:54;7.35;;;3.17;;
72584;SDS011;60618;40.084;32.908;2023-02-23T13:51:36;6.60;;;3.05;;
72584;SDS011;60618;40.084;32.908;2023-02-23T13:56:49;7.00;;;2.50;;
72584;SDS011;60618;40.084;32.908;2023-02-23T13:59:17;4.40;;;2.00;;
72584;SDS011;60618;40.084;32.908;2023-02-23T14:01:53;5.22;;;2.10;;
72584;SDS011;60618;40.084;32.908;2023-02-23T14:04:22;5.18;;;2.10;;
72584;SDS011;60618;40.084;32.908;2023-02-23T14:07:10;5.20;;;2.33;;
72584;SDS011;60618;40.084;32.908;2023-02-23T14:09:52;5.95;;;2.17;;
72584;SDS011;60618;40.084;32.908;2023-02-23T14:26:45;4.50;;;1.80;;
72584;SDS011;60618;40.084;32.908;2023-02-23T14:32:47;7.85;;;2.17;;
72584;SDS011;60618;40.084;32.908;2023-02-23T14:38:03;6.18;;;2.75;;
72584;SDS011;60618;40.084;32.908;2023-02-23T14:40:40;9.23;;;3.10;;
72584;SDS011;60618;40.084;32.908;2023-02-23T14:45:59;10.10;;;3.90;;
72584;SDS011;60618;40.084;32.908;2023-02-23T14:48:27;9.20;;;3.73;;
72584;SDS011;60618;40.084;32.908;2023-02-23T14:51:08;8.05;;;3.63;;
72584;SDS011;60618;40.084;32.908;2023-02-23T14:53:47;7.60;;;3.67;;
72584;SDS011;60618;40.084;32.908;2023-02-23T14:56:18;7.55;;;3.20;;
72584;SDS011;60618;40.084;32.908;2023-02-23T14:58:52;6.78;;;3.38;;
72584;SDS011;60618;40.084;32.908;2023-02-23T15:01:36;7.27;;;2.73;;
72584;SDS011;60618;40.084;32.908;2023-02-23T15:04:09;11.05;;;3.83;;
72584;SDS011;60618;40.084;32.908;2023-02-23T15:06:44;8.00;;;2.85;;
72584;SDS011;60618;40.084;32.908;2023-02-23T15:09:33;8.43;;;3.00;;
72584;SDS011;60618;40.084;32.908;2023-02-23T15:12:11;5.68;;;2.40;;
72584;SDS011;60618;40.084;32.908;2023-02-23T15:14:41;6.57;;;2.80;;
72584;SDS011;60618;40.084;32.908;2023-02-23T15:17:12;6.68;;;2.83;;
72584;SDS011;60618;40.084;32.908;2023-02-23T15:19:42;11.20;;;4.57;;
72584;SDS011;60618;40.084;32.908;2023-02-23T15:22:21;12.35;;;4.57;;
72584;SDS011;60618;40.084;32.908;2023-02-23T15:25:05;6.60;;;2.78;;
72584;SDS011;60618;40.084;32.908;2023-02-23T15:27:40;7.27;;;3.00;;
72584;SDS011;60618;40.084;32.908;2023-02-23T15:30:23;5.80;;;2.72;;
72584;SDS011;60618;40.084;32.908;2023-02-23T15:32:59;6.65;;;2.67;;
72584;SDS011;60618;40.084;32.908;2023-02-23T15:35:34;8.75;;;3.00;;
72584;SDS011;60618;40.084;32.908;2023-02-23T15:38:16;7.95;;;3.25;;
72584;SDS011;60618;40.084;32.908;2023-02-23T15:41:12;7.83;;;3.40;;
72584;SDS011;60618;40.084;32.908;2023-02-23T15:43:46;7.65;;;3.33;;
72584;SDS011;60618;40.084;32.908;2023-02-23T15:46:18;8.45;;;3.13;;
72584;SDS011;60618;40.084;32.908;2023-02-23T15:48:50;7.10;;;3.83;;
72584;SDS011;60618;40.084;32.908;2023-02-23T15:51:21;9.68;;;3.67;;
72584;SDS011;60618;40.084;32.908;2023-02-23T15:53:54;6.73;;;3.10;;
72584;SDS011;60618;40.084;32.908;2023-02-23T15:56:23;11.15;;;4.93;;
72584;SDS011;60618;40.084;32.908;2023-02-23T15:58:54;15.68;;;6.45;;
72584;SDS011;60618;40.084;32.908;2023-02-23T16:01:24;10.40;;;4.72;;
72584;SDS011;60618;40.084;32.908;2023-02-23T16:04:05;11.50;;;4.40;;
72584;SDS011;60618;40.084;32.908;2023-02-23T16:07:06;8.67;;;3.60;;
72584;SDS011;60618;40.084;32.908;2023-02-23T16:12:18;8.32;;;3.20;;
72584;SDS011;60618;40.084;32.908;2023-02-23T16:14:52;6.85;;;3.13;;
72584;SDS011;60618;40.084;32.908;2023-02-23T16:20:05;6.83;;;2.70;;
72584;SDS011;60618;40.084;32.908;2023-02-23T16:22:36;6.38;;;2.80;;
72584;SDS011;60618;40.084;32.908;2023-02-23T16:25:06;5.93;;;2.50;;
72584;SDS011;60618;40.084;32.908;2023-02-23T16:27:37;6.38;;;2.80;;
72584;SDS011;60618;40.084;32.908;2023-02-23T16:30:14;8.43;;;3.30;;
72584;SDS011;60618;40.084;32.908;2023-02-23T16:32:44;6.60;;;3.20;;
72584;SDS011;60618;40.084;32.908;2023-02-23T16:35:16;6.97;;;3.17;;
72584;SDS011;60618;40.084;32.908;2023-02-23T16:37:56;9.25;;;3.05;;
72584;SDS011;60618;40.084;32.908;2023-02-23T16:40:28;7.32;;;2.90;;
72584;SDS011;60618;40.084;32.908;2023-02-23T16:42:55;7.60;;;3.30;;
72584;SDS011;60618;40.084;32.908;2023-02-23T16:45:22;8.10;;;3.97;;
72584;SDS011;60618;40.084;32.908;2023-02-23T16:47:49;21.67;;;8.13;;
72584;SDS011;60618;40.084;32.908;2023-02-23T16:50:26;22.83;;;7.93;;
72584;SDS011;60618;40.084;32.908;2023-02-23T16:52:53;33.28;;;14.43;;
72584;SDS011;60618;40.084;32.908;2023-02-23T16:55:24;30.95;;;13.48;;
72584;SDS011;60618;40.084;32.908;2023-02-23T16:57:53;29.33;;;12.50;;
72584;SDS011;60618;40.084;32.908;2023-02-23T17:00:27;18.63;;;8.35;;
72584;SDS011;60618;40.084;32.908;2023-02-23T17:02:56;11.73;;;5.47;;
72584;SDS011;60618;40.084;32.908;2023-02-23T17:05:23;14.00;;;6.18;;
72584;SDS011;60618;40.084;32.908;2023-02-23T17:07:50;12.05;;;6.63;;
72584;SDS011;60618;40.084;32.908;2023-02-23T17:10:20;11.73;;;5.40;;
72584;SDS011;60618;40.084;32.908;2023-02-23T17:13:05;10.05;;;5.20;;
72584;SDS011;60618;40.084;32.908;2023-02-23T17:15:43;11.55;;;5.70;;